sensor_id;sensor_type;location;lat;lon;timestamp;P1;durP1;ratioP1;P2;durP2;ratioP2
57663;SDS011;43493;53.098;6.064;2023-10-31T00:01:40;22.43;;;7.97;;
57663;SDS011;43493;53.098;6.064;2023-10-31T00:04:06;21.80;;;7.53;;
57663;SDS011;43493;53.098;6.064;2023-10-31T00:06:32;25.97;;;8.10;;
57663;SDS011;43493;53.098;6.064;2023-10-31T00:08:57;35.63;;;8.93;;
57663;SDS011;43493;53.098;6.064;2023-10-31T00:11:23;32.17;;;10.10;;
57663;SDS011;43493;53.098;6.064;2023-10-31T00:13:49;23.43;;;7.40;;
57663;SDS011;43493;53.098;6.064;2023-10-31T00:16:15;18.53;;;6.10;;
57663;SDS011;43493;53.098;6.064;2023-10-31T00:18:40;42.63;;;9.03;;
57663;SDS011;43493;53.098;6.064;2023-10-31T00:21:06;19.90;;;6.20;;
57663;SDS011;43493;53.098;6.064;2023-10-31T00:23:32;19.57;;;5.53;;
57663;SDS011;43493;53.098;6.064;2023-10-31T00:25:57;32.27;;;7.27;;
57663;SDS011;43493;53.098;6.064;2023-10-31T00:28:23;30.87;;;8.30;;
57663;SDS011;43493;53.098;6.064;2023-10-31T00:30:49;29.03;;;8.03;;
57663;SDS011;43493;53.098;6.064;2023-10-31T00:33:14;21.17;;;8.37;;
57663;SDS011;43493;53.098;6.064;2023-10-31T00:35:40;29.60;;;8.73;;
57663;SDS011;43493;53.098;6.064;2023-10-31T00:38:06;29.07;;;9.63;;
57663;SDS011;43493;53.098;6.064;2023-10-31T00:40:31;25.33;;;7.37;;
57663;SDS011;43493;53.098;6.064;2023-10-31T00:42:57;26.67;;;7.03;;
57663;SDS011;43493;53.098;6.064;2023-10-31T00:45:24;31.47;;;9.20;;
57663;SDS011;43493;53.098;6.064;2023-10-31T00:47:49;19.10;;;5.90;;
57663;SDS011;43493;53.098;6.064;2023-10-31T00:50:15;23.50;;;6.87;;
57663;SDS011;43493;53.098;6.064;2023-10-31T00:52:41;24.07;;;5.90;;
57663;SDS011;43493;53.098;6.064;2023-10-31T00:55:06;20.53;;;4.57;;
57663;SDS011;43493;53.098;6.064;2023-10-31T00:57:32;17.97;;;4.83;;
57663;SDS011;43493;53.098;6.064;2023-10-31T00:59:58;16.97;;;4.53;;
57663;SDS011;43493;53.098;6.064;2023-10-31T01:02:23;21.43;;;4.10;;
57663;SDS011;43493;53.098;6.064;2023-10-31T01:04:49;16.60;;;4.43;;
57663;SDS011;43493;53.098;6.064;2023-10-31T01:07:15;20.70;;;4.87;;
57663;SDS011;43493;53.098;6.064;2023-10-31T01:09:42;18.37;;;5.07;;
57663;SDS011;43493;53.098;6.064;2023-10-31T01:12:09;15.83;;;4.63;;
57663;SDS011;43493;53.098;6.064;2023-10-31T01:14:36;18.30;;;4.90;;
57663;SDS011;43493;53.098;6.064;2023-10-31T01:17:02;16.97;;;4.60;;
57663;SDS011;43493;53.098;6.064;2023-10-31T01:19:27;27.17;;;6.50;;
57663;SDS011;43493;53.098;6.064;2023-10-31T01:21:53;24.03;;;6.00;;
57663;SDS011;43493;53.098;6.064;2023-10-31T01:24:19;21.90;;;5.97;;
57663;SDS011;43493;53.098;6.064;2023-10-31T01:26:44;27.90;;;6.30;;
57663;SDS011;43493;53.098;6.064;2023-10-31T01:29:10;25.63;;;5.97;;
57663;SDS011;43493;53.098;6.064;2023-10-31T01:31:36;25.13;;;6.43;;
57663;SDS011;43493;53.098;6.064;2023-10-31T01:34:02;22.30;;;5.93;;
57663;SDS011;43493;53.098;6.064;2023-10-31T01:36:28;27.17;;;5.93;;
57663;SDS011;43493;53.098;6.064;2023-10-31T01:38:54;25.93;;;6.43;;
57663;SDS011;43493;53.098;6.064;2023-10-31T01:41:19;26.47;;;5.93;;
57663;SDS011;43493;53.098;6.064;2023-10-31T01:43:45;27.97;;;6.57;;
57663;SDS011;43493;53.098;6.064;2023-10-31T01:46:11;31.07;;;7.83;;
57663;SDS011;43493;53.098;6.064;2023-10-31T01:48:36;26.07;;;7.33;;
57663;SDS011;43493;53.098;6.064;2023-10-31T01:51:03;31.17;;;9.27;;
57663;SDS011;43493;53.098;6.064;2023-10-31T01:53:30;38.77;;;9.80;;
57663;SDS011;43493;53.098;6.064;2023-10-31T01:55:59;41.67;;;10.03;;
57663;SDS011;43493;53.098;6.064;2023-10-31T01:58:33;34.40;;;9.93;;
57663;SDS011;43493;53.098;6.064;2023-10-31T02:01:00;32.17;;;9.63;;
57663;SDS011;43493;53.098;6.064;2023-10-31T02:03:29;44.13;;;11.53;;
57663;SDS011;43493;53.098;6.064;2023-10-31T02:05:56;33.67;;;10.43;;
57663;SDS011;43493;53.098;6.064;2023-10-31T02:08:22;43.10;;;12.10;;
57663;SDS011;43493;53.098;6.064;2023-10-31T02:10:49;37.87;;;10.80;;
57663;SDS011;43493;53.098;6.064;2023-10-31T02:13:15;30.57;;;10.17;;
57663;SDS011;43493;53.098;6.064;2023-10-31T02:15:42;29.20;;;9.10;;
57663;SDS011;43493;53.098;6.064;2023-10-31T02:18:09;30.90;;;8.97;;
57663;SDS011;43493;53.098;6.064;2023-10-31T02:20:35;27.97;;;8.20;;
57663;SDS011;43493;53.098;6.064;2023-10-31T02:23:01;22.77;;;6.90;;
57663;SDS011;43493;53.098;6.064;2023-10-31T02:25:27;24.57;;;6.93;;
57663;SDS011;43493;53.098;6.064;2023-10-31T02:27:53;31.67;;;7.07;;
57663;SDS011;43493;53.098;6.064;2023-10-31T02:30:19;26.93;;;7.60;;
57663;SDS011;43493;53.098;6.064;2023-10-31T02:32:45;24.10;;;7.30;;
57663;SDS011;43493;53.098;6.064;2023-10-31T02:35:11;24.33;;;7.30;;
57663;SDS011;43493;53.098;6.064;2023-10-31T02:37:37;23.93;;;7.73;;
57663;SDS011;43493;53.098;6.064;2023-10-31T02:40:03;25.83;;;7.47;;
57663;SDS011;43493;53.098;6.064;2023-10-31T02:42:29;21.57;;;5.90;;
57663;SDS011;43493;53.098;6.064;2023-10-31T02:44:55;19.47;;;4.63;;
57663;SDS011;43493;53.098;6.064;2023-10-31T02:47:21;18.87;;;4.43;;
57663;SDS011;43493;53.098;6.064;2023-10-31T02:49:47;23.93;;;5.43;;
57663;SDS011;43493;53.098;6.064;2023-10-31T02:52:12;25.23;;;5.93;;
57663;SDS011;43493;53.098;6.064;2023-10-31T02:54:38;23.60;;;5.27;;
57663;SDS011;43493;53.098;6.064;2023-10-31T02:57:04;19.70;;;4.87;;
57663;SDS011;43493;53.098;6.064;2023-10-31T02:59:30;21.27;;;5.73;;
57663;SDS011;43493;53.098;6.064;2023-10-31T03:01:56;23.77;;;5.30;;
57663;SDS011;43493;53.098;6.064;2023-10-31T03:04:22;16.47;;;5.60;;
57663;SDS011;43493;53.098;6.064;2023-10-31T03:06:48;27.43;;;6.30;;
57663;SDS011;43493;53.098;6.064;2023-10-31T03:09:14;24.63;;;6.33;;
57663;SDS011;43493;53.098;6.064;2023-10-31T03:11:40;21.43;;;5.60;;
57663;SDS011;43493;53.098;6.064;2023-10-31T03:14:06;20.40;;;6.00;;
57663;SDS011;43493;53.098;6.064;2023-10-31T03:16:32;37.43;;;7.37;;
57663;SDS011;43493;53.098;6.064;2023-10-31T03:18:58;29.67;;;7.67;;
57663;SDS011;43493;53.098;6.064;2023-10-31T03:21:23;24.40;;;6.93;;
57663;SDS011;43493;53.098;6.064;2023-10-31T03:23:50;31.10;;;8.00;;
57663;SDS011;43493;53.098;6.064;2023-10-31T03:26:16;28.63;;;7.33;;
57663;SDS011;43493;53.098;6.064;2023-10-31T03:28:42;20.57;;;6.97;;
57663;SDS011;43493;53.098;6.064;2023-10-31T03:31:09;26.77;;;7.13;;
57663;SDS011;43493;53.098;6.064;2023-10-31T03:33:35;28.00;;;8.03;;
57663;SDS011;43493;53.098;6.064;2023-10-31T03:36:01;24.93;;;7.17;;
57663;SDS011;43493;53.098;6.064;2023-10-31T03:38:27;19.30;;;6.60;;
57663;SDS011;43493;53.098;6.064;2023-10-31T03:40:53;22.67;;;6.03;;
57663;SDS011;43493;53.098;6.064;2023-10-31T03:43:19;17.93;;;5.73;;
57663;SDS011;43493;53.098;6.064;2023-10-31T03:45:48;18.60;;;4.90;;
57663;SDS011;43493;53.098;6.064;2023-10-31T03:48:15;16.37;;;4.40;;
57663;SDS011;43493;53.098;6.064;2023-10-31T03:50:41;20.90;;;5.70;;
57663;SDS011;43493;53.098;6.064;2023-10-31T03:53:07;18.60;;;4.80;;
57663;SDS011;43493;53.098;6.064;2023-10-31T03:55:33;15.70;;;3.70;;
57663;SDS011;43493;53.098;6.064;2023-10-31T03:57:59;12.17;;;3.10;;
57663;SDS011;43493;53.098;6.064;2023-10-31T04:00:25;15.23;;;3.37;;
57663;SDS011;43493;53.098;6.064;2023-10-31T04:02:51;14.00;;;3.37;;
57663;SDS011;43493;53.098;6.064;2023-10-31T04:05:17;13.57;;;3.20;;
57663;SDS011;43493;53.098;6.064;2023-10-31T04:07:43;12.47;;;2.83;;
57663;SDS011;43493;53.098;6.064;2023-10-31T04:10:10;15.67;;;2.60;;
57663;SDS011;43493;53.098;6.064;2023-10-31T04:12:36;13.53;;;2.30;;
57663;SDS011;43493;53.098;6.064;2023-10-31T04:15:02;12.03;;;2.50;;
57663;SDS011;43493;53.098;6.064;2023-10-31T04:17:29;10.07;;;2.17;;
57663;SDS011;43493;53.098;6.064;2023-10-31T04:19:54;16.63;;;2.73;;
57663;SDS011;43493;53.098;6.064;2023-10-31T04:22:20;11.30;;;1.93;;
57663;SDS011;43493;53.098;6.064;2023-10-31T04:24:46;10.47;;;2.00;;
57663;SDS011;43493;53.098;6.064;2023-10-31T04:27:11;10.47;;;2.17;;
57663;SDS011;43493;53.098;6.064;2023-10-31T04:29:37;13.70;;;1.83;;
57663;SDS011;43493;53.098;6.064;2023-10-31T04:32:03;11.80;;;1.87;;
57663;SDS011;43493;53.098;6.064;2023-10-31T04:34:29;9.10;;;1.63;;
57663;SDS011;43493;53.098;6.064;2023-10-31T04:36:55;11.43;;;1.90;;
57663;SDS011;43493;53.098;6.064;2023-10-31T04:39:20;6.13;;;1.73;;
57663;SDS011;43493;53.098;6.064;2023-10-31T04:41:46;8.07;;;1.87;;
57663;SDS011;43493;53.098;6.064;2023-10-31T04:44:12;8.37;;;1.50;;
57663;SDS011;43493;53.098;6.064;2023-10-31T04:46:37;13.57;;;2.00;;
57663;SDS011;43493;53.098;6.064;2023-10-31T04:49:03;12.13;;;2.30;;
57663;SDS011;43493;53.098;6.064;2023-10-31T04:51:35;8.97;;;1.87;;
57663;SDS011;43493;53.098;6.064;2023-10-31T04:54:02;7.17;;;1.60;;
57663;SDS011;43493;53.098;6.064;2023-10-31T04:56:28;8.57;;;1.67;;
57663;SDS011;43493;53.098;6.064;2023-10-31T04:58:54;8.27;;;1.77;;
57663;SDS011;43493;53.098;6.064;2023-10-31T05:01:20;9.63;;;1.60;;
57663;SDS011;43493;53.098;6.064;2023-10-31T05:03:45;7.63;;;1.73;;
57663;SDS011;43493;53.098;6.064;2023-10-31T05:06:11;8.97;;;1.80;;
57663;SDS011;43493;53.098;6.064;2023-10-31T05:08:37;7.30;;;1.90;;
57663;SDS011;43493;53.098;6.064;2023-10-31T05:11:02;14.13;;;1.90;;
57663;SDS011;43493;53.098;6.064;2023-10-31T05:13:28;9.13;;;2.63;;
57663;SDS011;43493;53.098;6.064;2023-10-31T05:15:54;8.07;;;2.10;;
57663;SDS011;43493;53.098;6.064;2023-10-31T05:18:20;9.20;;;2.27;;
57663;SDS011;43493;53.098;6.064;2023-10-31T05:20:46;7.53;;;2.83;;
57663;SDS011;43493;53.098;6.064;2023-10-31T05:23:12;7.13;;;2.60;;
57663;SDS011;43493;53.098;6.064;2023-10-31T05:25:38;15.27;;;2.73;;
57663;SDS011;43493;53.098;6.064;2023-10-31T05:28:04;8.87;;;2.70;;
57663;SDS011;43493;53.098;6.064;2023-10-31T05:30:30;14.57;;;3.30;;
57663;SDS011;43493;53.098;6.064;2023-10-31T05:32:56;13.53;;;2.77;;
57663;SDS011;43493;53.098;6.064;2023-10-31T05:35:22;9.80;;;3.03;;
57663;SDS011;43493;53.098;6.064;2023-10-31T05:37:48;12.13;;;3.10;;
57663;SDS011;43493;53.098;6.064;2023-10-31T05:40:14;9.70;;;2.63;;
57663;SDS011;43493;53.098;6.064;2023-10-31T05:42:40;13.57;;;3.03;;
57663;SDS011;43493;53.098;6.064;2023-10-31T05:45:06;15.07;;;2.70;;
57663;SDS011;43493;53.098;6.064;2023-10-31T05:47:32;7.80;;;2.30;;
57663;SDS011;43493;53.098;6.064;2023-10-31T05:50:00;9.80;;;2.70;;
57663;SDS011;43493;53.098;6.064;2023-10-31T05:52:29;9.53;;;2.70;;
57663;SDS011;43493;53.098;6.064;2023-10-31T05:54:55;9.80;;;2.70;;
57663;SDS011;43493;53.098;6.064;2023-10-31T05:57:21;11.40;;;2.70;;
57663;SDS011;43493;53.098;6.064;2023-10-31T05:59:47;7.97;;;2.70;;
57663;SDS011;43493;53.098;6.064;2023-10-31T06:02:15;10.43;;;3.30;;
57663;SDS011;43493;53.098;6.064;2023-10-31T06:04:41;10.63;;;3.37;;
57663;SDS011;43493;53.098;6.064;2023-10-31T06:07:07;8.30;;;3.43;;
57663;SDS011;43493;53.098;6.064;2023-10-31T06:09:33;13.67;;;3.60;;
57663;SDS011;43493;53.098;6.064;2023-10-31T06:11:59;11.80;;;3.23;;
57663;SDS011;43493;53.098;6.064;2023-10-31T06:14:25;12.67;;;3.67;;
57663;SDS011;43493;53.098;6.064;2023-10-31T06:16:51;9.10;;;3.17;;
57663;SDS011;43493;53.098;6.064;2023-10-31T06:19:17;10.73;;;3.70;;
57663;SDS011;43493;53.098;6.064;2023-10-31T06:21:43;11.10;;;4.10;;
57663;SDS011;43493;53.098;6.064;2023-10-31T06:24:09;10.70;;;4.00;;
57663;SDS011;43493;53.098;6.064;2023-10-31T06:26:35;14.43;;;4.27;;
57663;SDS011;43493;53.098;6.064;2023-10-31T06:29:01;11.30;;;3.87;;
57663;SDS011;43493;53.098;6.064;2023-10-31T06:31:26;14.20;;;4.93;;
57663;SDS011;43493;53.098;6.064;2023-10-31T06:33:52;15.00;;;5.10;;
57663;SDS011;43493;53.098;6.064;2023-10-31T06:36:18;12.20;;;4.83;;
57663;SDS011;43493;53.098;6.064;2023-10-31T06:38:43;12.37;;;3.97;;
57663;SDS011;43493;53.098;6.064;2023-10-31T06:41:09;10.43;;;3.70;;
57663;SDS011;43493;53.098;6.064;2023-10-31T06:43:35;14.03;;;4.13;;
57663;SDS011;43493;53.098;6.064;2023-10-31T06:46:01;16.07;;;4.47;;
57663;SDS011;43493;53.098;6.064;2023-10-31T06:48:29;12.07;;;4.17;;
57663;SDS011;43493;53.098;6.064;2023-10-31T06:50:55;13.27;;;4.00;;
57663;SDS011;43493;53.098;6.064;2023-10-31T06:53:20;16.00;;;4.27;;
57663;SDS011;43493;53.098;6.064;2023-10-31T06:55:46;13.10;;;3.43;;
57663;SDS011;43493;53.098;6.064;2023-10-31T06:58:12;10.20;;;3.40;;
57663;SDS011;43493;53.098;6.064;2023-10-31T07:00:37;16.23;;;3.50;;
57663;SDS011;43493;53.098;6.064;2023-10-31T07:03:03;11.43;;;3.07;;
57663;SDS011;43493;53.098;6.064;2023-10-31T07:05:34;10.03;;;2.73;;
57663;SDS011;43493;53.098;6.064;2023-10-31T07:08:00;10.53;;;2.43;;
57663;SDS011;43493;53.098;6.064;2023-10-31T07:10:26;12.37;;;2.63;;
57663;SDS011;43493;53.098;6.064;2023-10-31T07:12:51;9.87;;;2.50;;
57663;SDS011;43493;53.098;6.064;2023-10-31T07:15:17;11.77;;;2.80;;
57663;SDS011;43493;53.098;6.064;2023-10-31T07:17:42;8.23;;;2.40;;
57663;SDS011;43493;53.098;6.064;2023-10-31T07:20:08;12.47;;;2.63;;
57663;SDS011;43493;53.098;6.064;2023-10-31T07:22:34;10.57;;;2.10;;
57663;SDS011;43493;53.098;6.064;2023-10-31T07:25:01;13.23;;;2.20;;
57663;SDS011;43493;53.098;6.064;2023-10-31T07:27:28;9.53;;;1.70;;
57663;SDS011;43493;53.098;6.064;2023-10-31T07:29:54;10.90;;;1.90;;
57663;SDS011;43493;53.098;6.064;2023-10-31T07:32:20;10.77;;;2.17;;
57663;SDS011;43493;53.098;6.064;2023-10-31T07:34:46;7.93;;;1.80;;
57663;SDS011;43493;53.098;6.064;2023-10-31T07:37:12;10.23;;;1.90;;
57663;SDS011;43493;53.098;6.064;2023-10-31T07:39:37;9.57;;;1.70;;
57663;SDS011;43493;53.098;6.064;2023-10-31T07:42:03;9.83;;;1.70;;
57663;SDS011;43493;53.098;6.064;2023-10-31T07:44:29;5.43;;;0.90;;
57663;SDS011;43493;53.098;6.064;2023-10-31T07:46:55;6.37;;;1.07;;
57663;SDS011;43493;53.098;6.064;2023-10-31T07:49:21;5.80;;;1.60;;
57663;SDS011;43493;53.098;6.064;2023-10-31T07:51:47;8.80;;;1.40;;
57663;SDS011;43493;53.098;6.064;2023-10-31T07:54:13;6.73;;;1.40;;
57663;SDS011;43493;53.098;6.064;2023-10-31T07:56:41;3.97;;;1.23;;
57663;SDS011;43493;53.098;6.064;2023-10-31T07:59:06;7.97;;;1.17;;
57663;SDS011;43493;53.098;6.064;2023-10-31T08:01:33;6.03;;;1.20;;
57663;SDS011;43493;53.098;6.064;2023-10-31T08:04:00;6.83;;;1.20;;
57663;SDS011;43493;53.098;6.064;2023-10-31T08:06:26;7.17;;;1.17;;
57663;SDS011;43493;53.098;6.064;2023-10-31T08:08:51;5.60;;;1.30;;
57663;SDS011;43493;53.098;6.064;2023-10-31T08:11:17;4.63;;;1.07;;
57663;SDS011;43493;53.098;6.064;2023-10-31T08:13:43;6.47;;;1.20;;
57663;SDS011;43493;53.098;6.064;2023-10-31T08:16:09;6.90;;;1.40;;
57663;SDS011;43493;53.098;6.064;2023-10-31T08:18:35;8.43;;;1.77;;
57663;SDS011;43493;53.098;6.064;2023-10-31T08:21:01;7.10;;;1.37;;
57663;SDS011;43493;53.098;6.064;2023-10-31T08:23:28;6.30;;;1.70;;
57663;SDS011;43493;53.098;6.064;2023-10-31T08:25:54;6.80;;;2.17;;
57663;SDS011;43493;53.098;6.064;2023-10-31T08:28:19;7.43;;;2.20;;
57663;SDS011;43493;53.098;6.064;2023-10-31T08:30:45;7.53;;;1.20;;
57663;SDS011;43493;53.098;6.064;2023-10-31T08:33:12;3.67;;;0.80;;
57663;SDS011;43493;53.098;6.064;2023-10-31T08:35:37;7.00;;;1.20;;
57663;SDS011;43493;53.098;6.064;2023-10-31T08:38:03;6.30;;;1.53;;
57663;SDS011;43493;53.098;6.064;2023-10-31T08:40:29;6.77;;;1.30;;
57663;SDS011;43493;53.098;6.064;2023-10-31T08:42:54;7.57;;;1.40;;
57663;SDS011;43493;53.098;6.064;2023-10-31T08:45:20;5.00;;;1.20;;
57663;SDS011;43493;53.098;6.064;2023-10-31T08:47:46;3.53;;;0.90;;
57663;SDS011;43493;53.098;6.064;2023-10-31T08:50:12;6.00;;;1.40;;
57663;SDS011;43493;53.098;6.064;2023-10-31T08:52:39;5.37;;;1.00;;
57663;SDS011;43493;53.098;6.064;2023-10-31T08:55:05;6.20;;;1.20;;
57663;SDS011;43493;53.098;6.064;2023-10-31T08:57:31;11.03;;;1.27;;
57663;SDS011;43493;53.098;6.064;2023-10-31T08:59:58;9.57;;;1.50;;
57663;SDS011;43493;53.098;6.064;2023-10-31T09:02:24;11.17;;;1.50;;
57663;SDS011;43493;53.098;6.064;2023-10-31T09:04:50;8.53;;;1.27;;
57663;SDS011;43493;53.098;6.064;2023-10-31T09:07:16;19.00;;;1.83;;
57663;SDS011;43493;53.098;6.064;2023-10-31T09:09:42;14.53;;;1.70;;
57663;SDS011;43493;53.098;6.064;2023-10-31T09:12:07;11.47;;;1.63;;
57663;SDS011;43493;53.098;6.064;2023-10-31T09:14:34;11.53;;;2.03;;
57663;SDS011;43493;53.098;6.064;2023-10-31T09:17:00;12.33;;;1.80;;
57663;SDS011;43493;53.098;6.064;2023-10-31T09:19:26;13.80;;;1.70;;
57663;SDS011;43493;53.098;6.064;2023-10-31T09:21:53;14.33;;;1.30;;
57663;SDS011;43493;53.098;6.064;2023-10-31T09:24:20;10.63;;;1.70;;
57663;SDS011;43493;53.098;6.064;2023-10-31T09:26:45;7.70;;;1.33;;
57663;SDS011;43493;53.098;6.064;2023-10-31T09:29:11;5.93;;;1.00;;
57663;SDS011;43493;53.098;6.064;2023-10-31T09:31:37;7.40;;;1.10;;
57663;SDS011;43493;53.098;6.064;2023-10-31T09:34:02;7.33;;;1.20;;
57663;SDS011;43493;53.098;6.064;2023-10-31T09:36:31;5.40;;;1.10;;
57663;SDS011;43493;53.098;6.064;2023-10-31T09:38:57;9.73;;;1.47;;
57663;SDS011;43493;53.098;6.064;2023-10-31T09:41:23;6.33;;;0.97;;
57663;SDS011;43493;53.098;6.064;2023-10-31T09:43:49;5.27;;;1.17;;
57663;SDS011;43493;53.098;6.064;2023-10-31T09:46:15;9.77;;;1.00;;
57663;SDS011;43493;53.098;6.064;2023-10-31T09:48:42;11.40;;;1.53;;
57663;SDS011;43493;53.098;6.064;2023-10-31T09:51:08;7.80;;;1.27;;
57663;SDS011;43493;53.098;6.064;2023-10-31T09:53:37;11.23;;;1.40;;
57663;SDS011;43493;53.098;6.064;2023-10-31T09:56:06;8.20;;;1.37;;
57663;SDS011;43493;53.098;6.064;2023-10-31T09:58:32;8.07;;;1.30;;
57663;SDS011;43493;53.098;6.064;2023-10-31T10:00:59;7.47;;;1.50;;
57663;SDS011;43493;53.098;6.064;2023-10-31T10:03:25;9.00;;;1.60;;
57663;SDS011;43493;53.098;6.064;2023-10-31T10:05:51;10.83;;;1.63;;
57663;SDS011;43493;53.098;6.064;2023-10-31T10:08:17;8.63;;;1.77;;
57663;SDS011;43493;53.098;6.064;2023-10-31T10:10:44;10.23;;;1.50;;
57663;SDS011;43493;53.098;6.064;2023-10-31T10:13:10;10.37;;;2.00;;
57663;SDS011;43493;53.098;6.064;2023-10-31T10:15:44;13.20;;;1.67;;
57663;SDS011;43493;53.098;6.064;2023-10-31T10:18:10;8.40;;;1.23;;
57663;SDS011;43493;53.098;6.064;2023-10-31T10:20:56;10.53;;;1.60;;
57663;SDS011;43493;53.098;6.064;2023-10-31T10:23:26;10.67;;;2.13;;
57663;SDS011;43493;53.098;6.064;2023-10-31T10:25:54;8.00;;;2.63;;
57663;SDS011;43493;53.098;6.064;2023-10-31T10:28:21;13.73;;;1.63;;
57663;SDS011;43493;53.098;6.064;2023-10-31T10:30:50;10.23;;;2.30;;
57663;SDS011;43493;53.098;6.064;2023-10-31T10:33:17;11.50;;;1.83;;
57663;SDS011;43493;53.098;6.064;2023-10-31T10:35:43;11.87;;;1.80;;
57663;SDS011;43493;53.098;6.064;2023-10-31T10:38:13;8.40;;;1.70;;
57663;SDS011;43493;53.098;6.064;2023-10-31T10:40:43;9.97;;;1.80;;
57663;SDS011;43493;53.098;6.064;2023-10-31T10:43:31;10.13;;;1.70;;
57663;SDS011;43493;53.098;6.064;2023-10-31T10:46:01;14.03;;;2.37;;
57663;SDS011;43493;53.098;6.064;2023-10-31T10:48:34;12.03;;;2.10;;
57663;SDS011;43493;53.098;6.064;2023-10-31T10:51:11;8.98;;;1.65;;
57663;SDS011;43493;53.098;6.064;2023-10-31T10:53:50;13.23;;;2.10;;
57663;SDS011;43493;53.098;6.064;2023-10-31T10:57:14;15.70;;;1.53;;
57663;SDS011;43493;53.098;6.064;2023-10-31T10:59:27;12.27;;;2.10;;
57663;SDS011;43493;53.098;6.064;2023-10-31T11:02:03;8.80;;;1.43;;
57663;SDS011;43493;53.098;6.064;2023-10-31T11:04:31;5.03;;;1.30;;
57663;SDS011;43493;53.098;6.064;2023-10-31T11:06:58;7.30;;;1.47;;
57663;SDS011;43493;53.098;6.064;2023-10-31T11:09:25;16.10;;;1.87;;
57663;SDS011;43493;53.098;6.064;2023-10-31T11:11:51;14.30;;;2.60;;
57663;SDS011;43493;53.098;6.064;2023-10-31T11:14:18;10.20;;;1.67;;
57663;SDS011;43493;53.098;6.064;2023-10-31T11:16:47;14.07;;;1.90;;
57663;SDS011;43493;53.098;6.064;2023-10-31T11:19:17;9.57;;;2.13;;
57663;SDS011;43493;53.098;6.064;2023-10-31T11:21:59;9.83;;;1.60;;
57663;SDS011;43493;53.098;6.064;2023-10-31T11:24:27;13.93;;;2.20;;
57663;SDS011;43493;53.098;6.064;2023-10-31T11:26:58;19.07;;;1.97;;
57663;SDS011;43493;53.098;6.064;2023-10-31T11:29:25;16.53;;;2.30;;
57663;SDS011;43493;53.098;6.064;2023-10-31T11:31:51;14.00;;;1.87;;
57663;SDS011;43493;53.098;6.064;2023-10-31T11:34:19;9.63;;;1.70;;
57663;SDS011;43493;53.098;6.064;2023-10-31T11:36:45;14.10;;;2.63;;
57663;SDS011;43493;53.098;6.064;2023-10-31T11:39:14;13.40;;;2.47;;
57663;SDS011;43493;53.098;6.064;2023-10-31T11:41:49;13.07;;;1.97;;
57663;SDS011;43493;53.098;6.064;2023-10-31T11:44:16;13.50;;;1.47;;
57663;SDS011;43493;53.098;6.064;2023-10-31T11:46:42;10.40;;;1.67;;
57663;SDS011;43493;53.098;6.064;2023-10-31T11:49:08;12.17;;;1.50;;
57663;SDS011;43493;53.098;6.064;2023-10-31T11:51:34;10.73;;;1.43;;
57663;SDS011;43493;53.098;6.064;2023-10-31T11:54:03;8.40;;;1.60;;
57663;SDS011;43493;53.098;6.064;2023-10-31T11:56:33;8.73;;;1.70;;
57663;SDS011;43493;53.098;6.064;2023-10-31T11:59:01;11.87;;;1.63;;
57663;SDS011;43493;53.098;6.064;2023-10-31T12:01:28;8.97;;;1.40;;
57663;SDS011;43493;53.098;6.064;2023-10-31T12:03:53;13.13;;;1.53;;
57663;SDS011;43493;53.098;6.064;2023-10-31T12:06:19;12.13;;;1.50;;
57663;SDS011;43493;53.098;6.064;2023-10-31T12:08:46;11.00;;;1.60;;
57663;SDS011;43493;53.098;6.064;2023-10-31T12:11:14;9.80;;;1.93;;
57663;SDS011;43493;53.098;6.064;2023-10-31T12:13:57;13.53;;;2.10;;
57663;SDS011;43493;53.098;6.064;2023-10-31T12:16:26;17.47;;;1.70;;
57663;SDS011;43493;53.098;6.064;2023-10-31T12:21:35;19.70;;;2.20;;
57663;SDS011;43493;53.098;6.064;2023-10-31T12:24:05;11.97;;;1.67;;
57663;SDS011;43493;53.098;6.064;2023-10-31T12:26:33;10.00;;;1.60;;
57663;SDS011;43493;53.098;6.064;2023-10-31T12:29:15;13.50;;;1.97;;
57663;SDS011;43493;53.098;6.064;2023-10-31T12:31:49;13.70;;;2.00;;
57663;SDS011;43493;53.098;6.064;2023-10-31T12:34:15;9.80;;;1.87;;
57663;SDS011;43493;53.098;6.064;2023-10-31T12:36:42;9.57;;;1.50;;
57663;SDS011;43493;53.098;6.064;2023-10-31T12:39:10;8.23;;;1.47;;
57663;SDS011;43493;53.098;6.064;2023-10-31T12:41:37;6.37;;;1.40;;
57663;SDS011;43493;53.098;6.064;2023-10-31T12:44:05;10.17;;;1.73;;
57663;SDS011;43493;53.098;6.064;2023-10-31T12:46:32;11.33;;;1.80;;
57663;SDS011;43493;53.098;6.064;2023-10-31T12:49:00;12.60;;;1.70;;
57663;SDS011;43493;53.098;6.064;2023-10-31T12:51:26;8.93;;;1.50;;
57663;SDS011;43493;53.098;6.064;2023-10-31T12:53:52;6.80;;;1.53;;
57663;SDS011;43493;53.098;6.064;2023-10-31T12:59:05;7.67;;;1.33;;
57663;SDS011;43493;53.098;6.064;2023-10-31T13:01:33;10.57;;;2.00;;
57663;SDS011;43493;53.098;6.064;2023-10-31T13:04:07;7.70;;;1.88;;
57663;SDS011;43493;53.098;6.064;2023-10-31T13:06:32;7.43;;;1.20;;
57663;SDS011;43493;53.098;6.064;2023-10-31T13:08:58;9.23;;;1.50;;
57663;SDS011;43493;53.098;6.064;2023-10-31T13:11:29;6.20;;;1.60;;
57663;SDS011;43493;53.098;6.064;2023-10-31T13:13:55;10.43;;;1.63;;
57663;SDS011;43493;53.098;6.064;2023-10-31T13:16:21;9.17;;;1.50;;
57663;SDS011;43493;53.098;6.064;2023-10-31T13:18:46;11.97;;;1.87;;
57663;SDS011;43493;53.098;6.064;2023-10-31T13:21:12;5.73;;;1.20;;
57663;SDS011;43493;53.098;6.064;2023-10-31T13:23:42;6.10;;;1.23;;
57663;SDS011;43493;53.098;6.064;2023-10-31T13:26:13;6.33;;;1.37;;
57663;SDS011;43493;53.098;6.064;2023-10-31T13:28:39;11.73;;;1.70;;
57663;SDS011;43493;53.098;6.064;2023-10-31T13:31:06;6.90;;;1.23;;
57663;SDS011;43493;53.098;6.064;2023-10-31T13:33:32;8.50;;;1.40;;
57663;SDS011;43493;53.098;6.064;2023-10-31T13:35:58;7.10;;;1.27;;
57663;SDS011;43493;53.098;6.064;2023-10-31T13:38:24;6.73;;;1.33;;
57663;SDS011;43493;53.098;6.064;2023-10-31T13:40:49;6.30;;;1.20;;
57663;SDS011;43493;53.098;6.064;2023-10-31T13:43:15;7.50;;;1.73;;
57663;SDS011;43493;53.098;6.064;2023-10-31T13:45:41;6.10;;;1.30;;
57663;SDS011;43493;53.098;6.064;2023-10-31T13:48:06;3.30;;;1.10;;
57663;SDS011;43493;53.098;6.064;2023-10-31T13:50:32;7.60;;;1.67;;
57663;SDS011;43493;53.098;6.064;2023-10-31T13:52:58;8.67;;;1.70;;
57663;SDS011;43493;53.098;6.064;2023-10-31T13:55:24;12.10;;;2.00;;
57663;SDS011;43493;53.098;6.064;2023-10-31T13:57:50;12.53;;;2.00;;
57663;SDS011;43493;53.098;6.064;2023-10-31T14:00:16;4.60;;;1.53;;
57663;SDS011;43493;53.098;6.064;2023-10-31T14:02:42;5.97;;;1.70;;
57663;SDS011;43493;53.098;6.064;2023-10-31T14:05:07;14.57;;;1.70;;
57663;SDS011;43493;53.098;6.064;2023-10-31T14:07:33;9.60;;;1.60;;
57663;SDS011;43493;53.098;6.064;2023-10-31T14:10:00;6.53;;;1.80;;
57663;SDS011;43493;53.098;6.064;2023-10-31T14:12:26;6.80;;;1.70;;
57663;SDS011;43493;53.098;6.064;2023-10-31T14:14:53;7.97;;;1.30;;
57663;SDS011;43493;53.098;6.064;2023-10-31T14:17:19;7.60;;;1.57;;
57663;SDS011;43493;53.098;6.064;2023-10-31T14:19:45;7.10;;;1.77;;
57663;SDS011;43493;53.098;6.064;2023-10-31T14:22:13;7.53;;;2.10;;
57663;SDS011;43493;53.098;6.064;2023-10-31T14:24:39;7.40;;;2.20;;
57663;SDS011;43493;53.098;6.064;2023-10-31T14:27:05;8.67;;;1.70;;
57663;SDS011;43493;53.098;6.064;2023-10-31T14:29:31;6.83;;;1.90;;
57663;SDS011;43493;53.098;6.064;2023-10-31T14:31:57;7.47;;;1.60;;
57663;SDS011;43493;53.098;6.064;2023-10-31T14:34:30;6.03;;;1.33;;
57663;SDS011;43493;53.098;6.064;2023-10-31T14:36:55;5.77;;;1.20;;
57663;SDS011;43493;53.098;6.064;2023-10-31T14:39:21;6.00;;;1.37;;
57663;SDS011;43493;53.098;6.064;2023-10-31T14:41:47;6.33;;;1.80;;